KONT/ONT METAR and TAF weather

Enter ICAO airport designator
Station Type Date Time Source
KONT METAR 2021/09/16 11:53 UTC NOAA

KONT 161153Z 26004KT 4SM HZ BKN007 16/12 A2987 RMK AO2 SLP100 T01560122 10194 20156 56006


Station Type Date Time Source
KONT Decoded METAR 2021/09/16 11:53 UTC NOAA

ONTARIO INTERNATIONAL AIRPORT, CA, United States (KONT) 34-03N 117-35W 275M
Sep 16, 2021 - 07:53 AM EDT / 2021.09.16 1153 UTC
Wind: from the W (260 degrees) at 5 MPH (4 KT):0
Visibility: 4 mile(s):0
Sky conditions: mostly cloudy
Weather: haze
Temperature: 60.1 F (15.6 C)
Dew Point: 54.0 F (12.2 C)
Relative Humidity: 80%
Pressure (altimeter): 29.87 in. Hg (1011 hPa)
Pressure tendency: 0.02 inches (0.6 hPa) lower than three hours ago
ob: KONT 161153Z 26004KT 4SM HZ BKN007 16/12 A2987 RMK AO2 SLP100 T01560122 10194 20156 56006
cycle: 12

Station Type Date Time Source
KONT TAF 2021/09/16 12:34 UTC NOAA

TAF KONT 161128Z 1612/1718 VRB04KT 3SM BR BKN007
FM161700 VRB04KT P6SM SKC
FM162100 26012G20KT P6SM SKC
FM170400 VRB05KT P6SM SKC
FM171200 VRB04KT 3SM BR BKN007

Example: see airport list